Arcola, Texas
Current Conditions -  °F | °C
As of 1:55 PM on Saturday 25 Oct 2014 (Local Time) from KAXH Reporting Station
Clear Clear  
Wind Chill: 73°   Ceiling: Unl
Heat Index: 73°   Visibility: 10mi
Dew Point: 51°   Wind: 0mph
Humidity: 45%   Direction: NA
Pressure: 30.14"   Gusts: NA
Location:  29.4042°N, 95.4477°W
Report Text: KAXH 251855Z AUTO 00000KT 10SM CLR 23/11 A3014 RMK AO2 T02300105
Loading
Personal Weather Stations






























Interactive Weather Map New forecast layout! Learn more

10-Day Weather Forecast

Advertisements
Track Severe Weather on mobile